CDT,Max TemperatureF,Mean TemperatureF,Min TemperatureF,Max Dew PointF,MeanDew PointF,Min DewpointF,Max Humidity, Mean Humidity, Min Humidity, Max Sea Level PressureIn, Mean Sea Level PressureIn, Min Sea Level PressureIn, Max VisibilityMiles, Mean VisibilityMiles, Min VisibilityMiles, Max Wind SpeedMPH, Mean Wind SpeedMPH, Max Gust SpeedMPH,PrecipitationIn, CloudCover, Events, WindDirDegrees
2012-10-1,66,58,50,49,46,43,85,66,44,29.89,29.85,29.81,10,10,2,13,5,18,0.00,0,,22
2012-10-2,71,57,43,55,46,41,90,66,36,29.91,29.86,29.82,10,10,7,12,4,,0.00,1,Rain,339
2012-10-3,72,64,57,55,52,48,84,66,45,30.05,29.97,29.89,10,10,5,9,4,,0.00,6,Rain,201
2012-10-4,77,62,48,57,52,44,93,72,45,30.23,30.12,30.05,10,10,3,17,7,23,0.50,3,Rain-Thunderstorm,242
2012-10-5,48,44,38,46,40,34,93,83,66,30.27,30.23,30.18,10,10,3,14,6,18,0.69,6,Rain-Thunderstorm,320
2012-10-6,48,42,37,34,32,29,85,69,50,30.27,30.25,30.21,10,10,10,15,7,20,0.00,1,,302
2012-10-7,52,44,35,34,30,24,87,62,33,30.29,30.23,30.17,10,10,7,12,4,16,0.00,1,,285
2012-10-8,61,48,35,36,32,30,81,58,31,30.18,30.12,30.04,10,10,10,17,6,25,0.00,0,,193
2012-10-9,68,54,41,45,41,36,90,64,37,30.05,29.98,29.89,10,10,7,18,8,32,0.05,2,Rain,210
2012-10-10,57,47,37,43,33,26,95,64,33,30.28,30.19,30.06,10,10,4,13,5,22,0.00,0,,272
2012-10-11,68,54,39,48,39,32,77,58,38,30.21,30.17,30.10,10,10,7,15,6,18,0.00,2,,189
2012-10-12,62,54,46,48,41,36,80,63,47,30.41,30.30,30.21,10,10,10,15,8,22,0.00,2,,69
2012-10-13,73,62,51,65,59,46,94,86,69,30.19,29.97,29.78,10,6,2,17,9,23,1.27,5,Rain-Thunderstorm,167
2012-10-14,70,60,51,64,57,46,94,81,62,29.94,29.74,29.59,10,9,2,23,12,32,0.34,6,Rain,226
2012-10-15,67,57,47,47,44,40,87,68,36,30.02,29.97,29.94,10,10,2,8,4,,0.00,0,,283
2012-10-16,79,64,48,53,47,43,83,58,32,29.93,29.73,29.57,10,10,1,17,7,26,0.00,0,,171
2012-10-17,65,58,52,60,52,43,94,76,51,29.60,29.51,29.38,10,8,2,18,10,33,0.67,3,Rain-Thunderstorm,209
2012-10-18,56,51,46,44,36,30,87,58,37,29.58,29.55,29.51,10,10,7,24,12,33,0.05,4,Rain,235
2012-10-19,53,49,45,46,44,42,93,85,72,29.78,29.63,29.49,10,8,2,17,12,24,0.00,8,Rain,260
2012-10-20,59,54,47,48,45,43,91,79,59,29.91,29.86,29.78,10,10,4,8,4,,0.00,5,,217
2012-10-21,77,60,43,61,52,43,95,76,54,29.95,29.91,29.88,10,9,4,12,6,,0.00,0,,126
2012-10-22,79,71,64,66,64,60,91,80,65,29.93,29.90,29.86,10,10,4,14,8,22,0.09,5,Rain-Thunderstorm,166
2012-10-23,77,71,66,65,63,58,85,78,63,29.94,29.89,29.85,10,10,7,16,8,24,0.00,2,Rain-Thunderstorm,184
2012-10-24,82,72,63,66,62,58,85,69,54,29.95,29.89,29.83,10,10,4,15,9,22,0.00,1,,176
2012-10-25,77,60,42,63,54,34,92,76,60,30.21,29.89,29.75,10,10,2,24,14,31,0.15,4,Rain-Thunderstorm,224
2012-10-26,49,42,35,34,31,28,79,64,48,30.38,30.33,30.21,10,10,10,20,14,26,0.00,2,,337
2012-10-27,47,40,32,31,29,27,84,68,50,30.37,30.31,30.27,10,10,10,13,9,17,0.00,0,,351
2012-10-28,50,40,31,34,30,27,84,68,53,30.31,30.28,30.25,10,10,10,13,7,16,0.00,2,,345
2012-10-29,53,42,31,34,28,24,88,64,34,30.35,30.28,30.15,10,10,7,9,4,,0.00,0,,344
2012-10-30,56,44,33,29,27,25,75,53,31,30.15,30.00,29.91,10,10,10,22,8,29,0.00,0,,311
2012-10-31,53,42,32,29,24,16,83,53,22,29.99,29.96,29.93,10,10,10,15,7,22,0.00,0,,295